Time;durP1;ratioP1;P1;durP2;ratioP2;P2;SDS_P1;SDS_P2;PMS_P1;PMS_P2;Temp;Humidity;BMP_temperature;BMP_pressure;BME280_temperature;BME280_humidity;BME280_pressure;Samples;Min_cycle;Max_cycle;Signal;HPM_P1;HPM_P2
2022/01/03 00:00:27;;;;;;;3.73;1.80;;;15.50;53.40;;;;;;5081343;28;21063;-48
2022/01/03 00:02:55;;;;;;;3.80;1.40;;;15.60;53.50;;;;;;5083847;28;20525;-47
2022/01/03 00:05:21;;;;;;;4.83;1.93;;;15.50;53.30;;;;;;5089264;28;20472;-48
2022/01/03 00:07:47;;;;;;;2.47;1.57;;;15.50;53.40;;;;;;5085049;28;20496;-47
2022/01/03 00:10:15;;;;;;;2.97;1.77;;;15.40;53.20;;;;;;5086198;28;20223;-48
2022/01/03 00:12:41;;;;;;;3.60;1.53;;;15.50;53.20;;;;;;5090475;28;20274;-48
2022/01/03 00:15:10;;;;;;;3.93;1.63;;;15.40;53.90;;;;;;5086840;28;20540;-50
2022/01/03 00:17:36;;;;;;;2.83;1.70;;;15.40;53.40;;;;;;5093111;28;20445;-50
2022/01/03 00:20:04;;;;;;;7.43;2.23;;;15.50;53.20;;;;;;5084912;28;20469;-48
2022/01/03 00:23:04;;;;;;;2.67;1.60;;;15.40;52.80;;;;;;5090684;28;20444;-50
2022/01/03 00:25:35;;;;;;;2.23;1.73;;;15.40;53.10;;;;;;5070862;28;20858;-49
2022/01/03 00:28:23;;;;;;;4.17;1.87;;;15.40;53.10;;;;;;5085538;28;20465;-50
2022/01/03 00:30:55;;;;;;;3.63;1.70;;;15.40;52.90;;;;;;5085589;28;20441;-47
2022/01/03 00:33:21;;;;;;;4.60;2.10;;;15.70;52.80;;;;;;5085066;28;20859;-47
2022/01/03 00:35:53;;;;;;;2.70;1.40;;;15.70;52.40;;;;;;5080464;28;20430;-47
2022/01/03 00:38:20;;;;;;;4.77;1.70;;;15.30;52.40;;;;;;5100065;28;20847;-49
2022/01/03 00:40:46;;;;;;;7.33;1.50;;;15.30;52.70;;;;;;5085676;28;20446;-47
2022/01/03 00:43:14;;;;;;;4.00;1.37;;;15.40;52.70;;;;;;5084381;28;20434;-48
2022/01/03 00:45:40;;;;;;;4.13;1.67;;;15.40;52.50;;;;;;5092351;28;20480;-48
2022/01/03 00:48:09;;;;;;;2.20;1.30;;;15.30;52.40;;;;;;5098095;28;20433;-47
2022/01/03 00:50:35;;;;;;;4.07;1.67;;;15.30;52.60;;;;;;5086751;28;20199;-48
2022/01/03 00:53:01;;;;;;;4.60;1.50;;;15.60;52.40;;;;;;5087748;28;20823;-49
2022/01/03 00:55:26;;;;;;;3.50;2.00;;;15.50;51.80;;;;;;5084611;28;20473;-51
2022/01/03 00:58:03;;;;;;;3.40;1.50;;;15.40;51.90;;;;;;5083451;28;20252;-48
2022/01/03 01:00:31;;;;;;;3.43;1.30;;;15.50;51.80;;;;;;5094080;28;20229;-52
2022/01/03 01:03:04;;;;;;;2.53;1.43;;;15.50;51.30;;;;;;5090696;28;20490;-51
2022/01/03 01:05:30;;;;;;;8.50;1.67;;;15.50;51.30;;;;;;5086110;28;20485;-51
2022/01/03 01:07:57;;;;;;;4.90;1.60;;;15.50;51.10;;;;;;5083239;28;20452;-51
2022/01/03 01:10:30;;;;;;;3.70;1.37;;;15.40;51.10;;;;;;5094593;28;20449;-49
2022/01/03 01:12:56;;;;;;;3.63;1.63;;;15.30;51.10;;;;;;5089254;28;20806;-50
2022/01/03 01:15:24;;;;;;;3.17;1.53;;;15.30;51.50;;;;;;5072334;28;20444;-51
2022/01/03 01:17:52;;;;;;;3.23;1.90;;;15.50;51.20;;;;;;5084650;28;20426;-52
2022/01/03 01:20:20;;;;;;;2.17;1.87;;;15.70;51.10;;;;;;5076011;28;20476;-50
2022/01/03 01:22:46;;;;;;;3.03;1.67;;;15.60;50.90;;;;;;5077115;28;20517;-52
2022/01/03 01:27:47;;;;;;;1.53;1.20;;;15.60;51.40;;;;;;5087274;28;20430;-52
2022/01/03 01:30:13;;;;;;;4.30;2.00;;;15.60;51.30;;;;;;5087859;28;20451;-51
2022/01/03 01:32:42;;;;;;;7.40;1.53;;;15.60;51.30;;;;;;5081580;28;20920;-48
2022/01/03 01:35:09;;;;;;;3.23;1.70;;;15.70;51.30;;;;;;5092266;28;20524;-51
2022/01/03 01:37:36;;;;;;;6.03;1.90;;;15.60;51.50;;;;;;5087580;28;20445;-52
2022/01/03 01:40:03;;;;;;;6.50;2.83;;;15.60;51.30;;;;;;5092885;28;20452;-48
2022/01/03 01:42:31;;;;;;;2.17;1.43;;;15.70;51.30;;;;;;5089707;28;20478;-53
2022/01/03 01:45:02;;;;;;;1.43;1.30;;;15.50;51.60;;;;;;5086335;28;20545;-51
2022/01/03 01:47:28;;;;;;;2.17;1.50;;;15.50;51.80;;;;;;5078963;28;20507;-52
2022/01/03 01:49:56;;;;;;;1.63;1.53;;;15.20;51.40;;;;;;5088064;28;20511;-48
2022/01/03 01:52:23;;;;;;;2.17;1.63;;;15.30;52.00;;;;;;5086613;28;20432;-52
2022/01/03 01:55:01;;;;;;;2.40;1.37;;;15.30;51.90;;;;;;5096709;28;20422;-52
2022/01/03 01:58:03;;;;;;;2.77;1.40;;;15.10;52.20;;;;;;5083649;28;20449;-50
2022/01/03 02:00:30;;;;;;;2.40;1.30;;;14.90;52.60;;;;;;5077971;28;20456;-48
2022/01/03 02:03:24;;;;;;;2.90;1.50;;;15.00;53.00;;;;;;5091512;28;20516;-52
2022/01/03 02:06:22;;;;;;;2.30;1.40;;;14.90;52.90;;;;;;5076705;28;20905;-49
2022/01/03 02:09:08;;;;;;;4.43;1.37;;;14.80;53.00;;;;;;5084052;28;20484;-49
2022/01/03 02:11:56;;;;;;;3.40;1.67;;;14.80;53.30;;;;;;5092191;28;21381;-52
2022/01/03 02:14:24;;;;;;;3.40;1.97;;;15.00;53.20;;;;;;5087299;28;20453;-48
2022/01/03 02:16:53;;;;;;;4.07;1.90;;;14.80;53.10;;;;;;5092477;28;20478;-49
2022/01/03 02:19:21;;;;;;;3.20;1.27;;;14.70;53.60;;;;;;5086859;28;20469;-52
2022/01/03 02:21:48;;;;;;;2.83;1.67;;;14.60;53.60;;;;;;5085907;28;20437;-51
2022/01/03 02:24:13;;;;;;;2.13;1.50;;;14.60;53.70;;;;;;5083604;28;20477;-48
2022/01/03 02:26:40;;;;;;;3.33;1.30;;;14.60;53.90;;;;;;5089366;28;20537;-48
2022/01/03 02:29:05;;;;;;;2.00;1.37;;;14.60;53.90;;;;;;5086070;28;20191;-48
2022/01/03 02:31:32;;;;;;;1.80;1.20;;;14.90;53.80;;;;;;5085622;28;20436;-49
2022/01/03 02:34:00;;;;;;;3.50;1.20;;;14.90;53.50;;;;;;5090457;28;20622;-48
2022/01/03 02:36:27;;;;;;;2.57;1.63;;;15.00;53.60;;;;;;5090579;28;20440;-49
2022/01/03 02:38:53;;;;;;;3.33;1.67;;;14.90;53.50;;;;;;5087647;28;20442;-50
2022/01/03 02:41:19;;;;;;;4.83;1.70;;;14.90;53.90;;;;;;5090777;28;20985;-49
2022/01/03 02:43:44;;;;;;;5.50;1.30;;;14.90;54.30;;;;;;5082651;28;20571;-50
2022/01/03 02:46:10;;;;;;;3.30;1.30;;;14.90;54.30;;;;;;5098558;28;20754;-49
2022/01/03 02:48:36;;;;;;;3.43;1.90;;;15.00;54.10;;;;;;5093111;28;20188;-48
2022/01/03 02:51:01;;;;;;;5.07;1.80;;;14.90;54.20;;;;;;5090525;28;20227;-48
2022/01/03 02:53:27;;;;;;;3.90;1.40;;;15.00;54.30;;;;;;5089947;28;20295;-48
2022/01/03 02:55:53;;;;;;;3.37;1.50;;;15.00;53.90;;;;;;5088595;28;20211;-49
2022/01/03 02:58:19;;;;;;;2.70;1.50;;;14.90;54.00;;;;;;5089227;28;20429;-48
2022/01/03 03:00:49;;;;;;;5.80;1.40;;;14.90;53.80;;;;;;5095798;28;20731;-48
2022/01/03 03:03:16;;;;;;;2.80;1.30;;;15.00;54.10;;;;;;5087985;28;20229;-48
2022/01/03 03:05:43;;;;;;;6.23;1.60;;;15.30;53.70;;;;;;5098458;28;20850;-49
2022/01/03 03:08:10;;;;;;;2.90;1.30;;;15.20;53.30;;;;;;5091107;28;20426;-49
2022/01/03 03:10:36;;;;;;;3.27;1.70;;;15.20;54.10;;;;;;5090908;28;20935;-48
2022/01/03 03:13:02;;;;;;;5.00;2.03;;;15.30;53.40;;;;;;5090074;28;20422;-51
2022/01/03 03:15:27;;;;;;;4.00;1.43;;;15.50;53.20;;;;;;5072964;28;20252;-48
2022/01/03 03:17:53;;;;;;;4.17;1.37;;;15.60;53.20;;;;;;5095671;28;20696;-48
2022/01/03 03:20:22;;;;;;;2.87;1.50;;;15.40;53.00;;;;;;5084839;28;20284;-48
2022/01/03 03:22:50;;;;;;;2.60;1.40;;;15.50;53.20;;;;;;5085247;28;20429;-49
2022/01/03 03:25:18;;;;;;;3.13;1.53;;;15.40;53.30;;;;;;5075818;28;20503;-49
2022/01/03 03:27:47;;;;;;;4.10;1.40;;;15.60;53.10;;;;;;5087954;28;20925;-49
2022/01/03 03:30:40;;;;;;;6.30;1.77;;;15.40;52.70;;;;;;5083174;28;20434;-53
2022/01/03 03:33:18;;;;;;;3.80;1.83;;;15.50;52.90;;;;;;5082740;28;20433;-49
2022/01/03 03:35:46;;;;;;;2.90;1.53;;;15.50;53.10;;;;;;5080486;28;20452;-51
2022/01/03 03:38:12;;;;;;;4.10;1.53;;;15.70;52.90;;;;;;5089942;28;20428;-48
2022/01/03 03:40:38;;;;;;;3.73;1.80;;;15.50;52.80;;;;;;5079847;28;20430;-49
2022/01/03 03:43:04;;;;;;;3.70;1.67;;;15.40;53.10;;;;;;5082213;28;20448;-49
2022/01/03 03:45:30;;;;;;;5.33;1.70;;;15.60;53.10;;;;;;5081999;28;20223;-49
2022/01/03 03:47:57;;;;;;;5.57;1.40;;;15.70;52.70;;;;;;5084020;28;20811;-48
2022/01/03 03:50:24;;;;;;;2.03;1.40;;;15.60;52.70;;;;;;5089034;28;20566;-49
2022/01/03 03:52:50;;;;;;;4.90;1.23;;;15.70;52.70;;;;;;5084327;28;20445;-50
2022/01/03 03:55:16;;;;;;;4.23;1.83;;;15.80;52.20;;;;;;5081224;28;21013;-49
2022/01/03 03:57:42;;;;;;;6.47;1.50;;;15.90;51.80;;;;;;5088139;28;20429;-49
2022/01/03 04:00:10;;;;;;;3.03;1.60;;;15.90;51.50;;;;;;5082524;28;20686;-49
2022/01/03 04:02:36;;;;;;;3.73;1.47;;;15.50;51.40;;;;;;5090805;28;20513;-48
2022/01/03 04:05:03;;;;;;;4.33;1.53;;;15.50;51.90;;;;;;5076216;28;20478;-51
2022/01/03 04:07:29;;;;;;;2.90;1.47;;;15.60;51.80;;;;;;5084236;28;20662;-49
2022/01/03 04:09:54;;;;;;;6.97;1.90;;;15.50;51.90;;;;;;5082957;28;20518;-48
2022/01/03 04:12:20;;;;;;;8.00;1.60;;;15.80;51.70;;;;;;5082711;28;20270;-50
2022/01/03 04:14:45;;;;;;;5.23;1.37;;;15.80;51.00;;;;;;5083372;28;20658;-49
2022/01/03 04:17:12;;;;;;;3.00;1.27;;;15.70;51.30;;;;;;5093435;28;20338;-48
2022/01/03 04:19:38;;;;;;;3.37;1.10;;;15.90;51.20;;;;;;5084553;28;20228;-49
2022/01/03 04:22:03;;;;;;;4.40;1.67;;;16.00;50.90;;;;;;5088715;28;20485;-48
2022/01/03 04:24:29;;;;;;;2.77;1.50;;;16.10;50.70;;;;;;5093284;28;20436;-48
2022/01/03 04:26:55;;;;;;;4.47;1.73;;;16.20;50.40;;;;;;5088042;28;20222;-48
2022/01/03 04:29:20;;;;;;;5.53;1.30;;;16.40;50.10;;;;;;5079798;28;20192;-50
2022/01/03 04:31:46;;;;;;;4.43;1.60;;;16.50;50.00;;;;;;5084976;28;20278;-49
2022/01/03 04:34:13;;;;;;;2.20;1.13;;;16.00;49.50;;;;;;5087282;28;20203;-50
2022/01/03 04:36:39;;;;;;;5.40;1.47;;;15.80;50.10;;;;;;5088903;28;20183;-52
2022/01/03 04:39:05;;;;;;;4.10;1.67;;;15.70;50.10;;;;;;5092788;28;21266;-53
2022/01/03 04:41:31;;;;;;;3.77;1.30;;;15.60;50.20;;;;;;5095035;28;20534;-48
2022/01/03 04:43:56;;;;;;;4.03;1.90;;;15.60;50.00;;;;;;5096763;28;20425;-48
2022/01/03 04:46:22;;;;;;;3.50;1.50;;;15.60;49.70;;;;;;5092183;28;20820;-48
2022/01/03 04:48:48;;;;;;;9.70;2.93;;;15.80;49.70;;;;;;5082222;28;20194;-52
2022/01/03 04:51:13;;;;;;;1.60;1.30;;;15.90;49.40;;;;;;5096747;28;20182;-48
2022/01/03 04:53:40;;;;;;;2.27;1.53;;;16.00;49.80;;;;;;5087770;28;20617;-51
2022/01/03 04:56:11;;;;;;;5.70;1.30;;;16.00;50.30;;;;;;5077669;28;20284;-49
2022/01/03 04:58:37;;;;;;;4.27;1.50;;;16.00;50.60;;;;;;5079917;28;20430;-49
2022/01/03 05:01:04;;;;;;;4.37;2.03;;;16.10;51.30;;;;;;5100951;28;20448;-48
2022/01/03 05:03:29;;;;;;;3.90;1.73;;;16.10;51.80;;;;;;5090516;28;20433;-48
2022/01/03 05:05:55;;;;;;;4.53;1.57;;;15.80;53.00;;;;;;5081803;28;20476;-48
2022/01/03 05:08:21;;;;;;;3.27;1.20;;;15.20;54.60;;;;;;5085241;28;21055;-49
2022/01/03 05:10:46;;;;;;;4.30;1.50;;;14.90;55.80;;;;;;5091243;28;20184;-49
2022/01/03 05:13:12;;;;;;;3.00;1.50;;;14.80;56.90;;;;;;5089517;28;20206;-52
2022/01/03 05:15:37;;;;;;;3.63;1.27;;;14.90;57.50;;;;;;5095240;28;20228;-49
2022/01/03 05:18:03;;;;;;;2.50;1.10;;;15.20;57.90;;;;;;5094003;28;20198;-49
2022/01/03 05:20:29;;;;;;;8.13;1.60;;;15.20;58.00;;;;;;5080121;28;20235;-49
2022/01/03 05:22:54;;;;;;;2.97;1.00;;;15.10;58.60;;;;;;5078503;28;20199;-49
2022/01/03 05:25:20;;;;;;;11.30;1.60;;;15.10;58.70;;;;;;5086034;28;20204;-49
2022/01/03 05:27:46;;;;;;;4.67;2.07;;;15.10;59.00;;;;;;5081204;28;20194;-50
2022/01/03 05:30:12;;;;;;;4.50;1.77;;;15.10;59.20;;;;;;5091954;28;20252;-53
2022/01/03 05:32:37;;;;;;;4.00;1.27;;;15.10;59.00;;;;;;5082588;28;20200;-48
2022/01/03 05:35:04;;;;;;;6.53;1.57;;;15.10;59.40;;;;;;5091830;28;20792;-48
2022/01/03 05:37:29;;;;;;;4.67;1.57;;;15.30;59.00;;;;;;5091761;28;20187;-51
2022/01/03 05:39:55;;;;;;;7.97;1.83;;;15.40;58.90;;;;;;5092478;28;20430;-49
2022/01/03 05:42:21;;;;;;;5.07;1.90;;;15.50;58.90;;;;;;5085552;28;20192;-49
2022/01/03 05:44:47;;;;;;;6.30;1.87;;;15.60;58.80;;;;;;5082635;28;20188;-50
2022/01/03 05:47:12;;;;;;;3.03;1.27;;;15.60;58.70;;;;;;5084409;28;20433;-51
2022/01/03 05:49:38;;;;;;;5.83;1.10;;;15.70;58.60;;;;;;5088345;28;20269;-53
2022/01/03 05:52:04;;;;;;;4.10;1.90;;;15.80;58.40;;;;;;5083108;28;20180;-49
2022/01/03 05:54:29;;;;;;;4.30;2.07;;;15.80;58.50;;;;;;5090483;28;20206;-50
2022/01/03 05:56:55;;;;;;;3.80;1.43;;;15.80;58.50;;;;;;5082455;28;20195;-51
2022/01/03 05:59:20;;;;;;;3.90;1.27;;;15.70;58.50;;;;;;5091770;28;20641;-51
2022/01/03 06:01:47;;;;;;;5.10;1.37;;;15.80;58.50;;;;;;5083647;28;20640;-50
2022/01/03 06:04:24;;;;;;;5.73;1.80;;;15.80;58.50;;;;;;5088940;28;20571;-49
2022/01/03 06:07:16;;;;;;;4.37;1.40;;;15.80;58.40;;;;;;5078067;28;20524;-50
2022/01/03 06:09:42;;;;;;;7.40;1.60;;;15.80;58.40;;;;;;5085961;28;20441;-49
2022/01/03 06:12:07;;;;;;;3.67;1.40;;;15.80;58.50;;;;;;5094165;28;20953;-48
2022/01/03 06:14:33;;;;;;;3.30;1.97;;;15.80;58.70;;;;;;5089931;28;20240;-48
2022/01/03 06:16:59;;;;;;;4.00;1.83;;;15.80;58.80;;;;;;5084122;28;20259;-48
2022/01/03 06:19:26;;;;;;;8.07;1.30;;;15.80;59.00;;;;;;5079430;28;20239;-50
2022/01/03 06:21:52;;;;;;;2.33;1.27;;;15.80;58.90;;;;;;5086302;28;20437;-50
2022/01/03 06:24:19;;;;;;;2.87;1.40;;;15.80;58.80;;;;;;5094969;28;20435;-49
2022/01/03 06:26:45;;;;;;;4.93;1.40;;;15.70;58.80;;;;;;5093900;28;20222;-49
2022/01/03 06:29:12;;;;;;;5.73;1.70;;;15.70;58.90;;;;;;5089989;28;20788;-49
2022/01/03 06:31:38;;;;;;;7.07;1.80;;;15.80;58.80;;;;;;5092068;28;20437;-50
2022/01/03 06:34:04;;;;;;;4.60;1.90;;;15.70;58.80;;;;;;5095552;28;20455;-49
2022/01/03 06:36:30;;;;;;;3.50;1.43;;;15.70;58.70;;;;;;5089096;28;20520;-50
2022/01/03 06:38:56;;;;;;;4.33;1.53;;;15.80;58.60;;;;;;5087072;28;20222;-48
2022/01/03 06:41:23;;;;;;;6.63;1.57;;;15.70;58.70;;;;;;5087255;28;20261;-49
2022/01/03 06:43:49;;;;;;;4.93;1.90;;;15.50;58.90;;;;;;5091351;28;20429;-48
2022/01/03 06:46:15;;;;;;;3.17;1.30;;;15.60;58.90;;;;;;5100459;28;20559;-49
2022/01/03 06:48:41;;;;;;;5.70;2.13;;;15.70;58.90;;;;;;5082369;28;20498;-48
2022/01/03 06:51:06;;;;;;;4.47;1.97;;;15.70;58.70;;;;;;5087887;28;20420;-49
2022/01/03 06:53:32;;;;;;;6.87;2.20;;;15.80;58.90;;;;;;5105143;28;20201;-50
2022/01/03 06:55:58;;;;;;;4.33;1.93;;;15.70;58.60;;;;;;5081157;28;20211;-49
2022/01/03 06:58:23;;;;;;;7.50;2.37;;;15.80;58.70;;;;;;5083315;28;20195;-50
2022/01/03 07:00:49;;;;;;;7.93;2.33;;;15.90;58.90;;;;;;5094212;28;20191;-49
2022/01/03 07:03:15;;;;;;;7.17;2.23;;;15.80;58.90;;;;;;5088101;28;20696;-51
2022/01/03 07:05:41;;;;;;;6.33;1.83;;;15.90;58.90;;;;;;5083542;28;20250;-49
2022/01/03 07:08:06;;;;;;;6.97;2.03;;;15.90;58.50;;;;;;5087803;28;20214;-49
2022/01/03 07:10:32;;;;;;;5.60;1.70;;;16.00;58.60;;;;;;5089114;28;20679;-49
2022/01/03 07:12:59;;;;;;;6.63;2.70;;;16.10;58.70;;;;;;5078555;28;20199;-52
2022/01/03 07:20:54;;;;;;;4.67;2.47;;;16.20;58.30;;;;;;5087892;28;20557;-49
2022/01/03 07:23:21;;;;;;;10.27;2.90;;;16.20;58.40;;;;;;5088301;28;20479;-49
2022/01/03 07:25:47;;;;;;;4.07;2.13;;;16.30;58.30;;;;;;5085756;28;20306;-49
2022/01/03 07:28:14;;;;;;;5.27;2.20;;;16.30;58.40;;;;;;5087483;28;20586;-49
2022/01/03 07:30:40;;;;;;;8.60;1.80;;;16.10;58.40;;;;;;5084472;28;20196;-51
2022/01/03 07:33:05;;;;;;;6.77;2.43;;;16.00;58.90;;;;;;5085879;28;20488;-57
2022/01/03 07:35:31;;;;;;;5.07;2.27;;;16.00;58.90;;;;;;5078192;28;20192;-53
2022/01/03 07:37:58;;;;;;;6.87;2.70;;;16.10;59.10;;;;;;5090467;28;20191;-53
2022/01/03 07:40:25;;;;;;;8.27;2.67;;;16.20;59.10;;;;;;5093875;28;20199;-53
2022/01/03 07:42:51;;;;;;;5.27;2.47;;;16.20;59.10;;;;;;5078043;28;20460;-52
2022/01/03 07:45:17;;;;;;;6.60;3.50;;;16.30;58.90;;;;;;5079338;28;20960;-51
2022/01/03 07:47:42;;;;;;;7.70;3.10;;;16.30;59.00;;;;;;5091819;28;20187;-53
2022/01/03 07:50:10;;;;;;;5.43;3.00;;;16.30;58.90;;;;;;5088582;28;20426;-52
2022/01/03 07:52:36;;;;;;;3.90;2.33;;;16.30;59.10;;;;;;5091010;28;20282;-50
2022/01/03 07:55:02;;;;;;;6.77;2.30;;;16.20;59.20;;;;;;5089051;28;21097;-53
2022/01/03 07:57:28;;;;;;;5.27;2.27;;;16.20;59.20;;;;;;5090866;28;20900;-51
2022/01/03 07:59:55;;;;;;;5.43;2.33;;;16.20;59.00;;;;;;5090271;28;20436;-53
2022/01/03 08:02:21;;;;;;;2.67;1.73;;;16.20;58.90;;;;;;5090876;28;20659;-52
2022/01/03 08:04:46;;;;;;;6.10;1.77;;;16.20;58.80;;;;;;5081031;28;20433;-53
2022/01/03 08:07:12;;;;;;;4.70;2.83;;;16.10;58.80;;;;;;5088339;28;20631;-52
2022/01/03 08:09:37;;;;;;;7.80;2.90;;;16.10;59.00;;;;;;5089720;28;20195;-49
2022/01/03 08:12:05;;;;;;;7.13;3.27;;;16.00;59.30;;;;;;5088832;28;20237;-53
2022/01/03 08:14:31;;;;;;;5.80;1.80;;;16.00;59.70;;;;;;5089893;28;20195;-51
2022/01/03 08:16:57;;;;;;;6.40;2.43;;;16.00;59.70;;;;;;5086996;28;20791;-52
2022/01/03 08:19:23;;;;;;;7.50;2.80;;;16.00;59.40;;;;;;5091133;28;20524;-53
2022/01/03 08:21:49;;;;;;;5.37;2.90;;;15.90;59.60;;;;;;5086717;28;20203;-53
2022/01/03 08:24:15;;;;;;;3.90;3.00;;;15.80;59.70;;;;;;5091068;28;20199;-52
2022/01/03 08:26:40;;;;;;;9.70;3.43;;;15.90;59.90;;;;;;5087092;28;20537;-53
2022/01/03 08:29:06;;;;;;;4.00;2.13;;;15.90;59.80;;;;;;5087104;28;20199;-53
2022/01/03 08:31:32;;;;;;;4.70;2.83;;;15.90;59.90;;;;;;5090211;28;20581;-51
2022/01/03 08:33:57;;;;;;;3.77;2.40;;;15.90;60.00;;;;;;5078490;28;20662;-53
2022/01/03 08:36:23;;;;;;;3.90;2.77;;;15.90;59.80;;;;;;5085293;28;20248;-51
2022/01/03 08:38:49;;;;;;;6.33;2.57;;;15.80;59.80;;;;;;5082241;28;20233;-53
2022/01/03 08:41:14;;;;;;;8.07;3.20;;;15.90;59.90;;;;;;5089798;28;20567;-52
2022/01/03 08:43:40;;;;;;;8.37;3.93;;;15.80;59.80;;;;;;5096204;28;20199;-52
2022/01/03 08:46:06;;;;;;;8.00;3.97;;;15.90;60.20;;;;;;5096638;28;20261;-50
2022/01/03 08:48:31;;;;;;;12.67;7.20;;;15.80;60.40;;;;;;5090698;28;20215;-51
2022/01/03 08:50:57;;;;;;;20.10;15.13;;;15.80;60.20;;;;;;5093593;28;20206;-53
2022/01/03 08:53:26;;;;;;;12.97;6.30;;;15.80;60.50;;;;;;5092263;28;20191;-50
2022/01/03 08:55:57;;;;;;;8.10;3.40;;;15.90;60.40;;;;;;5091559;28;20494;-49
2022/01/03 08:58:24;;;;;;;11.87;3.40;;;16.00;60.40;;;;;;5096038;28;20444;-52
2022/01/03 09:00:49;;;;;;;34.50;16.40;;;16.00;60.30;;;;;;5093163;28;20436;-52
2022/01/03 09:03:16;;;;;;;14.60;8.60;;;16.10;60.20;;;;;;5095637;28;20920;-53
2022/01/03 09:05:42;;;;;;;13.00;6.90;;;16.20;59.90;;;;;;5098880;28;20221;-52
2022/01/03 09:08:09;;;;;;;12.50;6.53;;;16.20;60.00;;;;;;5095597;28;20442;-49
2022/01/03 09:10:35;;;;;;;14.50;7.67;;;16.20;59.80;;;;;;5094998;28;20191;-52
2022/01/03 09:13:01;;;;;;;15.57;9.67;;;16.20;59.70;;;;;;5094419;28;20490;-49
2022/01/03 09:15:27;;;;;;;13.40;8.67;;;16.30;59.70;;;;;;5096680;28;20502;-53
2022/01/03 09:17:52;;;;;;;10.57;5.43;;;16.30;60.00;;;;;;5097690;28;20269;-51
2022/01/03 09:20:19;;;;;;;12.00;7.77;;;16.30;59.80;;;;;;5095848;28;20233;-51
2022/01/03 09:22:48;;;;;;;13.80;6.27;;;16.30;59.70;;;;;;5096611;28;20218;-53
2022/01/03 09:30:32;;;;;;;11.83;5.33;;;16.40;60.00;;;;;;5088121;28;20500;-53
2022/01/03 09:32:57;;;;;;;11.33;5.37;;;16.40;60.20;;;;;;5095717;28;20437;-53
2022/01/03 09:35:23;;;;;;;10.00;5.30;;;16.40;60.30;;;;;;5095546;28;20444;-52
2022/01/03 09:37:49;;;;;;;10.00;5.20;;;16.40;60.20;;;;;;5097038;28;20278;-52
2022/01/03 09:40:16;;;;;;;13.13;5.23;;;16.50;60.00;;;;;;5096687;28;20191;-50
2022/01/03 09:42:45;;;;;;;10.87;4.90;;;16.50;59.80;;;;;;5096842;28;20677;-52
2022/01/03 09:45:11;;;;;;;7.33;4.90;;;16.60;59.70;;;;;;5086505;28;20435;-48
2022/01/03 09:47:39;;;;;;;11.83;5.50;;;16.50;59.70;;;;;;5086024;28;20421;-48
2022/01/03 09:50:06;;;;;;;11.00;4.43;;;16.60;59.70;;;;;;5091638;28;20202;-50
2022/01/03 09:52:32;;;;;;;9.20;4.83;;;16.60;59.60;;;;;;5087839;28;20457;-49
2022/01/03 09:55:00;;;;;;;9.07;4.30;;;16.70;59.50;;;;;;5091978;28;20429;-49
2022/01/03 09:57:28;;;;;;;7.27;4.10;;;16.70;59.30;;;;;;5092617;28;20444;-49
2022/01/03 09:59:54;;;;;;;9.90;3.57;;;16.70;58.90;;;;;;5091952;28;20444;-49
2022/01/03 10:02:21;;;;;;;5.30;2.30;;;16.70;58.40;;;;;;5093026;28;20429;-48
2022/01/03 10:04:48;;;;;;;9.13;2.87;;;16.70;57.80;;;;;;5092704;28;20465;-49
2022/01/03 10:07:14;;;;;;;8.10;3.67;;;16.60;57.40;;;;;;5092377;28;20542;-49
2022/01/03 10:09:42;;;;;;;7.00;3.43;;;16.50;57.00;;;;;;5093419;28;20433;-49
2022/01/03 10:12:13;;;;;;;13.93;2.10;;;16.20;56.50;;;;;;5081563;28;20533;-50
2022/01/03 10:14:39;;;;;;;4.93;2.27;;;16.10;56.00;;;;;;5092205;28;20449;-50
2022/01/03 10:17:05;;;;;;;3.63;1.70;;;15.70;55.40;;;;;;5091461;28;20449;-49
2022/01/03 10:19:31;;;;;;;5.57;1.57;;;15.50;55.80;;;;;;5090382;28;20995;-51
2022/01/03 10:21:56;;;;;;;4.30;2.03;;;15.30;55.40;;;;;;5092154;28;20433;-49
2022/01/03 10:24:38;;;;;;;11.13;2.50;;;15.40;56.20;;;;;;5082557;28;20241;-49
2022/01/03 10:27:04;;;;;;;8.03;2.50;;;15.60;55.80;;;;;;5089260;28;20222;-49
2022/01/03 10:29:31;;;;;;;4.90;1.53;;;15.30;56.10;;;;;;5094731;28;20429;-49
2022/01/03 10:31:59;;;;;;;5.17;1.97;;;15.40;56.20;;;;;;5092269;28;20842;-49
2022/01/03 10:34:26;;;;;;;5.13;1.93;;;15.60;55.70;;;;;;5093941;28;20433;-51
2022/01/03 10:36:54;;;;;;;6.30;2.50;;;15.50;55.30;;;;;;5090405;28;20468;-50
2022/01/03 10:39:23;;;;;;;6.30;1.97;;;15.50;55.60;;;;;;5088188;28;22726;-49
2022/01/03 10:41:51;;;;;;;5.77;1.50;;;15.50;55.30;;;;;;5089201;28;20454;-50
2022/01/03 10:44:36;;;;;;;4.23;1.33;;;15.60;55.50;;;;;;5096544;28;20449;-49
2022/01/03 10:47:04;;;;;;;4.10;2.23;;;15.50;55.20;;;;;;5086233;28;20485;-50
2022/01/03 10:49:32;;;;;;;5.30;1.63;;;15.50;55.40;;;;;;5095359;28;20562;-50
2022/01/03 10:52:16;;;;;;;3.90;1.80;;;15.60;55.20;;;;;;5093814;28;20452;-50
2022/01/03 10:54:44;;;;;;;4.00;1.30;;;15.60;54.50;;;;;;5085059;28;20433;-53
2022/01/03 10:57:09;;;;;;;3.67;1.20;;;15.50;55.10;;;;;;5093775;28;20446;-53
2022/01/03 10:59:36;;;;;;;4.30;1.60;;;15.60;54.90;;;;;;5084299;28;20442;-50
2022/01/03 11:02:07;;;;;;;4.80;1.40;;;15.50;54.80;;;;;;5088382;28;20191;-52
2022/01/03 11:04:45;;;;;;;3.90;1.70;;;15.70;54.70;;;;;;5085385;28;20806;-51
2022/01/03 11:13:07;;;;;;;4.23;1.20;;;15.80;55.30;;;;;;5091769;28;20501;-50
2022/01/03 11:15:34;;;;;;;6.30;1.63;;;15.80;54.80;;;;;;5092998;28;20437;-49
2022/01/03 11:18:19;;;;;;;4.63;1.30;;;16.00;54.70;;;;;;5093651;28;20438;-49
2022/01/03 11:20:48;;;;;;;5.53;1.97;;;16.10;54.50;;;;;;5090680;28;20473;-52
2022/01/03 11:23:22;;;;;;;9.27;1.57;;;16.20;54.30;;;;;;5089539;28;20434;-50
2022/01/03 11:25:49;;;;;;;3.97;1.97;;;16.20;54.50;;;;;;5091157;28;20484;-52
2022/01/03 11:28:15;;;;;;;4.13;1.70;;;16.30;53.90;;;;;;5093775;28;20528;-53
2022/01/03 11:30:44;;;;;;;6.10;2.00;;;16.00;53.60;;;;;;5092021;28;20951;-50
2022/01/03 11:33:10;;;;;;;2.03;1.10;;;16.00;54.50;;;;;;5088836;28;20524;-52
2022/01/03 11:35:38;;;;;;;4.50;1.70;;;16.20;54.30;;;;;;5083738;28;20450;-50
2022/01/03 11:38:06;;;;;;;4.20;1.87;;;16.20;54.10;;;;;;5090920;28;20486;-51
2022/01/03 11:40:32;;;;;;;3.20;1.10;;;16.10;53.80;;;;;;5091385;28;20469;-53
2022/01/03 11:42:59;;;;;;;3.47;1.50;;;16.10;54.10;;;;;;5094598;28;21239;-50
2022/01/03 11:45:25;;;;;;;4.93;1.50;;;16.10;54.40;;;;;;5097736;28;20481;-53
2022/01/03 11:47:51;;;;;;;6.50;2.00;;;15.90;54.40;;;;;;5091844;28;20425;-50
2022/01/03 11:50:17;;;;;;;4.77;1.80;;;15.90;54.70;;;;;;5089821;28;20224;-52
2022/01/03 11:52:44;;;;;;;1.93;1.27;;;16.00;54.50;;;;;;5091697;28;20432;-52
2022/01/03 11:55:12;;;;;;;5.50;1.60;;;16.10;54.30;;;;;;5091749;28;20439;-52
2022/01/03 12:06:02;;;;;;;8.90;2.00;;;16.20;53.60;;;;;;5089834;28;20499;-50
2022/01/03 12:08:33;;;;;;;2.43;1.57;;;16.10;53.60;;;;;;5091666;28;20498;-52
2022/01/03 12:11:01;;;;;;;2.30;1.40;;;16.10;53.80;;;;;;5090739;28;20947;-52
2022/01/03 12:13:51;;;;;;;6.80;1.70;;;15.90;53.00;;;;;;5085764;28;20786;-49
2022/01/03 12:16:19;;;;;;;4.47;1.83;;;15.80;53.50;;;;;;5082748;28;20433;-51
2022/01/03 12:19:00;;;;;;;2.83;1.17;;;15.80;53.90;;;;;;5092128;28;20928;-49
2022/01/03 12:21:48;;;;;;;4.10;1.63;;;15.90;53.20;;;;;;5086130;28;20428;-49
2022/01/03 12:24:29;;;;;;;4.57;1.30;;;15.90;53.10;;;;;;5081901;28;20499;-50
2022/01/03 12:27:10;;;;;;;2.93;1.33;;;15.50;52.10;;;;;;5088952;28;21006;-49
2022/01/03 12:29:54;;;;;;;2.53;0.90;;;15.40;52.30;;;;;;5084939;28;20561;-49
2022/01/03 12:32:24;;;;;;;4.40;1.33;;;15.20;51.70;;;;;;5091550;28;20430;-50
2022/01/03 12:35:16;;;;;;;4.83;1.23;;;15.20;51.90;;;;;;5090597;28;20468;-48
2022/01/03 12:37:54;;;;;;;1.80;0.80;;;15.30;51.90;;;;;;5089899;28;20466;-49
2022/01/03 12:40:27;;;;;;;3.03;1.50;;;15.30;50.80;;;;;;5090744;28;20429;-49
2022/01/03 12:42:53;;;;;;;2.50;1.00;;;15.40;50.50;;;;;;5090956;28;20441;-50
2022/01/03 12:45:33;;;;;;;2.70;1.10;;;15.50;50.50;;;;;;5083815;28;20474;-49
2022/01/03 12:48:11;;;;;;;4.00;1.47;;;15.50;50.50;;;;;;5090277;28;20585;-50
2022/01/03 12:50:43;;;;;;;5.47;1.40;;;15.20;50.80;;;;;;5090771;28;20437;-49
2022/01/03 12:53:29;;;;;;;2.70;1.27;;;15.10;51.60;;;;;;5085235;28;20441;-50
2022/01/03 12:56:00;;;;;;;4.30;1.27;;;15.40;51.80;;;;;;5087557;28;20441;-51
2022/01/03 12:58:26;;;;;;;5.07;1.27;;;15.70;51.70;;;;;;5088873;28;20586;-50
2022/01/03 13:00:58;;;;;;;4.00;1.30;;;15.90;51.70;;;;;;5090841;28;20534;-49
2022/01/03 13:03:43;;;;;;;4.27;1.10;;;15.60;50.90;;;;;;5088085;28;20259;-50
2022/01/03 13:06:18;;;;;;;3.17;1.47;;;15.70;51.20;;;;;;5082164;28;20488;-49
2022/01/03 13:09:10;;;;;;;2.10;1.20;;;15.80;51.10;;;;;;5086327;28;20459;-49
2022/01/03 13:11:44;;;;;;;4.37;1.40;;;15.80;50.70;;;;;;5084665;28;20500;-51
2022/01/03 13:14:21;;;;;;;5.13;2.00;;;15.80;51.00;;;;;;5087678;28;21177;-51
2022/01/03 13:16:58;;;;;;;3.33;1.30;;;15.80;51.20;;;;;;5087202;28;20441;-50
2022/01/03 13:19:30;;;;;;;4.70;1.50;;;15.90;51.10;;;;;;5084587;28;20476;-51